createdAt,value
2023-05-07T00:00:40.669Z,26.53
2023-05-07T00:01:40.648Z,26.53
2023-05-07T00:02:40.714Z,26.48
2023-05-07T00:03:40.793Z,26.43
2023-05-07T00:04:40.624Z,26.05
2023-05-07T00:05:40.611Z,26.75
2023-05-07T00:06:40.582Z,26.48
2023-05-07T00:07:40.567Z,26.43
2023-05-07T00:08:40.558Z,26.43
2023-05-07T00:09:40.540Z,26.48
2023-05-07T00:10:40.532Z,26.53
2023-05-07T00:11:40.815Z,26.43
2023-05-07T00:12:40.557Z,26.48
2023-05-07T00:13:40.489Z,26.48
2023-05-07T00:14:40.491Z,26.64
2023-05-07T00:15:40.566Z,26.48
2023-05-07T00:16:40.542Z,26.48
2023-05-07T00:17:40.481Z,26.59
2023-05-07T00:18:40.425Z,26.43
2023-05-07T00:19:40.414Z,26.48
2023-05-07T00:20:40.398Z,26.48
2023-05-07T00:21:40.401Z,26.64
2023-05-07T00:22:40.372Z,26.48
2023-05-07T00:23:40.353Z,26.48
2023-05-07T00:24:40.341Z,26.48
2023-05-07T00:25:40.336Z,26.48
2023-05-07T00:26:40.319Z,26.48
2023-05-07T00:27:40.312Z,26.53
2023-05-07T00:28:40.282Z,26.64
2023-05-07T00:29:40.272Z,26.53
2023-05-07T00:30:40.265Z,26.59
2023-05-07T00:31:40.390Z,26.59
2023-05-07T00:32:40.263Z,26.32
2023-05-07T00:33:40.229Z,26.43
2023-05-07T00:34:40.209Z,26.48
2023-05-07T00:35:40.198Z,26.59
2023-05-07T00:36:40.186Z,26.59
2023-05-07T00:37:40.173Z,26.48
2023-05-07T00:38:40.158Z,26.48
2023-05-07T00:39:40.150Z,26.75
2023-05-07T00:40:40.139Z,26.64
2023-05-07T00:41:40.122Z,26.48
2023-05-07T00:42:40.124Z,26.59
2023-05-07T00:43:40.100Z,26.37
2023-05-07T00:44:40.081Z,26.53
2023-05-07T00:45:40.103Z,26.48
2023-05-07T00:46:40.053Z,26.43
2023-05-07T00:47:40.184Z,26.48
2023-05-07T00:48:40.029Z,26.43
2023-05-07T00:49:40.017Z,26.48
2023-05-07T00:50:40.003Z,26.53
2023-05-07T00:51:39.990Z,26.48
2023-05-07T00:52:39.978Z,26.43
2023-05-07T00:53:39.963Z,26.48
2023-05-07T00:54:39.949Z,26.43
2023-05-07T00:55:39.948Z,26.37
2023-05-07T00:56:39.926Z,26.48
2023-05-07T00:57:39.914Z,26.48
2023-05-07T00:58:39.896Z,26.53
2023-05-07T00:59:39.891Z,26.43
2023-05-07T01:00:39.865Z,26.48
2023-05-07T01:01:39.891Z,26.43
2023-05-07T01:02:39.876Z,26.64
2023-05-07T01:03:40.029Z,26.43
2023-05-07T01:04:39.933Z,26.48
2023-05-07T01:05:39.805Z,26.43
2023-05-07T01:06:39.797Z,26.43
2023-05-07T01:07:39.784Z,26.59
2023-05-07T01:08:39.763Z,26.48
2023-05-07T01:09:39.765Z,26.21
2023-05-07T01:10:39.740Z,26.48
2023-05-07T01:11:39.924Z,26.53
2023-05-07T01:12:39.760Z,26.80
2023-05-07T01:13:39.716Z,26.59
2023-05-07T01:14:39.685Z,26.43
2023-05-07T01:15:39.677Z,26.48
2023-05-07T01:16:39.674Z,26.37
2023-05-07T01:17:39.853Z,26.53
2023-05-07T01:18:39.636Z,26.48
2023-05-07T01:19:39.653Z,26.43
2023-05-07T01:20:39.610Z,26.43
2023-05-07T01:21:39.594Z,26.48
2023-05-07T01:22:39.621Z,26.48
2023-05-07T01:23:39.572Z,26.64
2023-05-07T01:24:39.573Z,26.48
2023-05-07T01:25:39.796Z,26.43
2023-05-07T01:26:39.532Z,26.64
2023-05-07T01:27:39.514Z,26.43
2023-05-07T01:28:40.469Z,26.43
2023-05-07T01:29:39.641Z,26.43
2023-05-07T01:30:39.477Z,26.37
2023-05-07T01:31:39.473Z,26.48
2023-05-07T01:32:39.510Z,26.43
2023-05-07T01:33:39.447Z,26.48
2023-05-07T01:34:39.674Z,26.43
2023-05-07T01:35:39.448Z,26.43
2023-05-07T01:36:39.393Z,26.48
2023-05-07T01:37:39.690Z,26.48
2023-05-07T01:38:39.373Z,26.43
2023-05-07T01:39:39.358Z,26.16
2023-05-07T01:40:39.742Z,26.59
2023-05-07T01:41:39.334Z,26.43
2023-05-07T01:42:39.315Z,26.37
2023-05-07T01:43:39.601Z,26.64
2023-05-07T01:44:39.288Z,26.48
2023-05-07T01:45:39.303Z,26.10
2023-05-07T01:46:39.344Z,26.48
2023-05-07T01:47:39.290Z,26.53
2023-05-07T01:48:39.281Z,26.10
2023-05-07T01:49:39.251Z,26.59
2023-05-07T01:50:39.225Z,26.48
2023-05-07T01:51:39.220Z,26.48
2023-05-07T01:52:39.193Z,26.43
2023-05-07T01:53:39.171Z,26.59
2023-05-07T01:54:39.198Z,26.48
2023-05-07T01:55:39.161Z,26.64
2023-05-07T01:56:39.159Z,26.16
2023-05-07T01:57:39.177Z,26.53
2023-05-07T01:58:39.173Z,26.43
2023-05-07T01:59:39.097Z,26.48
2023-05-07T02:00:39.085Z,26.59
2023-05-07T02:01:39.223Z,26.21
2023-05-07T02:02:39.207Z,26.59
2023-05-07T02:03:39.120Z,26.37
2023-05-07T02:04:39.373Z,26.48
2023-05-07T02:05:39.010Z,26.48
2023-05-07T02:06:39.005Z,26.59
2023-05-07T02:07:39.079Z,26.43
2023-05-07T02:08:38.974Z,26.59
2023-05-07T02:09:38.951Z,26.43
2023-05-07T02:10:38.936Z,26.43
2023-05-07T02:11:38.927Z,26.48
2023-05-07T02:12:38.949Z,26.75
2023-05-07T02:13:38.909Z,26.53
2023-05-07T02:14:38.894Z,26.48
2023-05-07T02:15:38.876Z,26.21
2023-05-07T02:16:38.898Z,26.53
2023-05-07T02:17:38.873Z,26.53
2023-05-07T02:18:38.836Z,26.48
2023-05-07T02:19:38.825Z,26.43
2023-05-07T02:20:38.812Z,26.59
2023-05-07T02:21:38.828Z,26.37
2023-05-07T02:22:38.783Z,26.43
2023-05-07T02:23:38.868Z,26.48
2023-05-07T02:24:38.762Z,26.48
2023-05-07T02:25:38.747Z,26.43
2023-05-07T02:26:38.751Z,26.48
2023-05-07T02:27:38.718Z,26.43
2023-05-07T02:28:38.707Z,26.48
2023-05-07T02:29:38.696Z,26.53
2023-05-07T02:30:38.671Z,26.37
2023-05-07T02:31:38.727Z,26.48
2023-05-07T02:32:38.717Z,26.48
2023-05-07T02:33:38.645Z,26.48
2023-05-07T02:34:38.627Z,26.43
2023-05-07T02:35:38.611Z,26.59
2023-05-07T02:36:38.594Z,26.48
2023-05-07T02:37:38.580Z,26.43
2023-05-07T02:38:38.571Z,26.64
2023-05-07T02:39:38.716Z,26.43
2023-05-07T02:40:38.542Z,26.48
2023-05-07T02:41:38.528Z,26.43
2023-05-07T02:42:38.527Z,26.48
2023-05-07T02:43:38.543Z,26.43
2023-05-07T02:44:38.487Z,26.37
2023-05-07T02:45:38.614Z,26.48
2023-05-07T02:46:38.482Z,26.43
2023-05-07T02:47:38.547Z,26.48
2023-05-07T02:48:38.440Z,26.48
2023-05-07T02:49:38.428Z,26.43
2023-05-07T02:50:38.411Z,26.05
2023-05-07T02:51:38.402Z,26.43
2023-05-07T02:52:38.389Z,26.32
2023-05-07T02:53:38.371Z,26.05
2023-05-07T02:54:38.355Z,26.48
2023-05-07T02:55:38.432Z,26.26
2023-05-07T02:56:38.337Z,25.83
2023-05-07T02:57:38.316Z,26.53
2023-05-07T02:58:38.294Z,26.05
2023-05-07T02:59:38.290Z,26.00
2023-05-07T03:00:38.264Z,26.16
2023-05-07T03:01:38.307Z,25.83
2023-05-07T03:02:38.266Z,26.00
2023-05-07T03:03:38.297Z,25.46
2023-05-07T03:04:38.268Z,26.05
2023-05-07T03:05:38.214Z,25.78
2023-05-07T03:06:38.195Z,26.05
2023-05-07T03:07:38.191Z,26.05
2023-05-07T03:08:38.170Z,26.05
2023-05-07T03:09:38.152Z,26.05
2023-05-07T03:10:38.135Z,26.16
2023-05-07T03:11:38.147Z,26.05
2023-05-07T03:12:38.132Z,26.05
2023-05-07T03:13:38.103Z,26.10
2023-05-07T03:14:38.095Z,26.10
2023-05-07T03:15:38.121Z,26.00
2023-05-07T03:16:38.063Z,26.00
2023-05-07T03:17:38.142Z,26.05
2023-05-07T03:18:38.068Z,26.43
2023-05-07T03:19:38.016Z,26.10
2023-05-07T03:20:38.036Z,26.48
2023-05-07T03:21:37.999Z,26.05
2023-05-07T03:22:37.977Z,26.16
2023-05-07T03:23:37.971Z,26.05
2023-05-07T03:24:37.948Z,26.16
2023-05-07T03:25:37.935Z,26.05
2023-05-07T03:26:37.932Z,26.10
2023-05-07T03:27:38.020Z,26.16
2023-05-07T03:28:37.903Z,26.10
2023-05-07T03:29:37.888Z,26.00
2023-05-07T03:30:37.867Z,26.00
2023-05-07T03:31:37.929Z,26.05
2023-05-07T03:32:37.937Z,26.05
2023-05-07T03:33:37.829Z,26.05
2023-05-07T03:34:37.813Z,26.05
2023-05-07T03:35:37.797Z,26.16
2023-05-07T03:36:37.792Z,26.05
2023-05-07T03:37:37.770Z,26.21
2023-05-07T03:38:37.757Z,26.05
2023-05-07T03:39:37.753Z,26.26
2023-05-07T03:40:37.732Z,26.05
2023-05-07T03:41:37.714Z,26.16
2023-05-07T03:42:37.714Z,26.05
2023-05-07T03:43:37.849Z,26.05
2023-05-07T03:44:37.676Z,26.48
2023-05-07T03:45:37.668Z,26.16
2023-05-07T03:46:37.683Z,25.51
2023-05-07T03:47:37.721Z,25.94
2023-05-07T03:48:37.627Z,26.26
2023-05-07T03:49:37.613Z,26.05
2023-05-07T03:50:37.626Z,26.05
2023-05-07T03:51:37.590Z,26.05
2023-05-07T03:52:37.571Z,26.05
2023-05-07T03:53:37.565Z,26.37
2023-05-07T03:54:37.549Z,26.05
2023-05-07T03:55:37.542Z,26.05
2023-05-07T03:56:37.521Z,26.05
2023-05-07T03:57:37.502Z,26.05
2023-05-07T03:58:37.508Z,26.10
2023-05-07T03:59:37.578Z,25.94
2023-05-07T04:00:37.463Z,26.05
2023-05-07T04:01:37.496Z,26.05
2023-05-07T04:02:37.641Z,26.05
2023-05-07T04:03:37.502Z,26.05
2023-05-07T04:04:37.416Z,26.00
2023-05-07T04:05:37.548Z,26.05
2023-05-07T04:06:37.389Z,26.05
2023-05-07T04:07:37.379Z,26.05
2023-05-07T04:08:37.365Z,26.16
2023-05-07T04:09:37.359Z,26.05
2023-05-07T04:10:37.334Z,26.00
2023-05-07T04:11:37.347Z,26.16
2023-05-07T04:12:37.358Z,25.94
2023-05-07T04:13:37.301Z,26.05
2023-05-07T04:14:37.277Z,26.16
2023-05-07T04:15:37.388Z,26.10
2023-05-07T04:16:37.327Z,26.05
2023-05-07T04:17:37.243Z,26.10
2023-05-07T04:18:37.230Z,26.00
2023-05-07T04:19:37.215Z,26.10
2023-05-07T04:20:37.217Z,26.05
2023-05-07T04:21:37.189Z,26.05
2023-05-07T04:22:37.170Z,25.89
2023-05-07T04:23:37.155Z,26.05
2023-05-07T04:24:37.160Z,26.16
2023-05-07T04:25:37.135Z,26.10
2023-05-07T04:26:37.121Z,26.10
2023-05-07T04:27:37.103Z,26.05
2023-05-07T04:28:37.092Z,26.05
2023-05-07T04:29:37.074Z,25.94
2023-05-07T04:30:37.069Z,26.05
2023-05-07T04:31:37.181Z,26.10
2023-05-07T04:32:37.070Z,25.89
2023-05-07T04:33:37.032Z,26.10
2023-05-07T04:34:37.013Z,26.05
2023-05-07T04:35:37.004Z,26.00
2023-05-07T04:36:36.983Z,26.05
2023-05-07T04:37:36.979Z,26.05
2023-05-07T04:38:36.964Z,25.73
2023-05-07T04:39:36.951Z,26.05
2023-05-07T04:40:36.930Z,26.05
2023-05-07T04:41:36.912Z,26.05
2023-05-07T04:42:36.912Z,26.21
2023-05-07T04:43:36.884Z,25.83
2023-05-07T04:44:36.876Z,26.05
2023-05-07T04:45:36.891Z,26.21
2023-05-07T04:46:36.936Z,26.05
2023-05-07T04:47:37.216Z,25.83
2023-05-07T04:48:36.856Z,26.10
2023-05-07T04:49:36.808Z,26.16
2023-05-07T04:50:36.795Z,26.16
2023-05-07T04:51:36.779Z,26.05
2023-05-07T04:52:36.768Z,26.05
2023-05-07T04:53:36.757Z,26.48
2023-05-07T04:54:36.756Z,26.21
2023-05-07T04:55:36.735Z,26.16
2023-05-07T04:56:36.715Z,26.05
2023-05-07T04:57:36.726Z,26.00
2023-05-07T04:58:36.687Z,26.05
2023-05-07T04:59:36.678Z,26.10
2023-05-07T05:00:36.670Z,26.05
2023-05-07T05:01:36.750Z,26.10
2023-05-07T05:02:36.656Z,26.10
2023-05-07T05:03:36.813Z,26.00
2023-05-07T05:04:36.623Z,26.05
2023-05-07T05:05:36.591Z,26.10
2023-05-07T05:06:36.583Z,26.05
2023-05-07T05:07:36.875Z,26.05
2023-05-07T05:08:36.559Z,26.10
2023-05-07T05:09:36.545Z,26.05
2023-05-07T05:10:36.543Z,26.10
2023-05-07T05:11:36.516Z,28.14
2023-05-07T05:12:36.522Z,50.49
2023-05-07T05:13:36.502Z,50.22
2023-05-07T05:14:36.478Z,50.38
2023-05-07T05:15:36.475Z,47.64
2023-05-07T05:16:36.540Z,43.08
2023-05-07T05:17:36.451Z,40.23
2023-05-07T05:18:36.441Z,39.10
2023-05-07T05:19:36.437Z,38.08
2023-05-07T05:20:36.407Z,38.08
2023-05-07T05:21:36.389Z,36.58
2023-05-07T05:22:36.373Z,36.74
2023-05-07T05:23:36.357Z,36.68
2023-05-07T05:24:36.341Z,35.66
2023-05-07T05:25:36.328Z,35.72
2023-05-07T05:26:36.316Z,35.66
2023-05-07T05:27:36.302Z,34.59
2023-05-07T05:28:36.300Z,34.64
2023-05-07T05:29:36.533Z,34.27
2023-05-07T05:30:36.270Z,33.30
2023-05-07T05:31:36.349Z,33.52
2023-05-07T05:32:36.249Z,33.30
2023-05-07T05:33:36.225Z,47.70
2023-05-07T05:34:36.210Z,50.38
2023-05-07T05:35:36.318Z,50.22
2023-05-07T05:36:36.182Z,50.33
2023-05-07T05:37:36.171Z,50.22
2023-05-07T05:38:36.164Z,47.48
2023-05-07T05:39:36.147Z,40.18
2023-05-07T05:40:36.135Z,37.92
2023-05-07T05:41:36.120Z,36.68
2023-05-07T05:42:36.111Z,35.50
2023-05-07T05:43:36.096Z,34.48
2023-05-07T05:44:36.081Z,33.35
2023-05-07T05:45:36.061Z,33.25
2023-05-07T05:46:37.304Z,33.30
2023-05-07T05:47:36.081Z,32.76
2023-05-07T05:48:36.036Z,32.28
2023-05-07T05:49:36.015Z,33.30
2023-05-07T05:50:35.996Z,31.26
2023-05-07T05:51:36.010Z,32.33
2023-05-07T05:52:36.127Z,32.33
2023-05-07T05:53:35.964Z,30.62
2023-05-07T05:54:35.960Z,31.21
2023-05-07T05:55:35.928Z,30.19
2023-05-07T05:56:35.916Z,30.19
2023-05-07T05:57:35.899Z,31.04
2023-05-07T05:58:35.895Z,29.76
2023-05-07T05:59:35.882Z,30.24
2023-05-07T06:00:35.866Z,29.59
2023-05-07T06:01:35.872Z,30.24
2023-05-07T06:02:35.956Z,29.54
2023-05-07T06:03:35.820Z,30.24
2023-05-07T06:04:35.838Z,30.19
2023-05-07T06:05:35.801Z,30.13
2023-05-07T06:06:35.789Z,29.92
2023-05-07T06:07:35.871Z,29.65
2023-05-07T06:08:35.758Z,29.59
2023-05-07T06:09:35.740Z,29.59
2023-05-07T06:10:35.730Z,29.59
2023-05-07T06:11:35.734Z,29.65
2023-05-07T06:12:35.749Z,29.54
2023-05-07T06:13:35.694Z,29.65
2023-05-07T06:14:35.690Z,29.76
2023-05-07T06:15:35.664Z,29.54
2023-05-07T06:16:35.705Z,29.54
2023-05-07T06:17:35.682Z,29.11
2023-05-07T06:18:35.633Z,29.65
2023-05-07T06:19:35.608Z,29.22
2023-05-07T06:20:35.601Z,29.33
2023-05-07T06:21:35.584Z,29.33
2023-05-07T06:22:35.575Z,29.22
2023-05-07T06:23:35.652Z,29.54
2023-05-07T06:24:35.549Z,29.22
2023-05-07T06:25:35.539Z,29.22
2023-05-07T06:26:35.524Z,29.11
2023-05-07T06:27:35.511Z,29.22
2023-05-07T06:28:35.494Z,29.17
2023-05-07T06:29:35.478Z,29.17
2023-05-07T06:30:35.477Z,29.27
2023-05-07T06:31:35.498Z,29.27
2023-05-07T06:32:35.443Z,29.22
2023-05-07T06:33:36.357Z,29.22
2023-05-07T06:34:35.417Z,28.79
2023-05-07T06:35:35.404Z,29.22
2023-05-07T06:36:35.391Z,28.90
2023-05-07T06:37:35.371Z,29.17
2023-05-07T06:38:35.365Z,28.84
2023-05-07T06:39:35.426Z,28.84
2023-05-07T06:40:35.334Z,28.79
2023-05-07T06:41:35.319Z,28.79
2023-05-07T06:42:35.302Z,28.79
2023-05-07T06:43:35.301Z,28.84
2023-05-07T06:44:35.297Z,28.79
2023-05-07T06:45:35.262Z,28.79
2023-05-07T06:46:35.523Z,28.63
2023-05-07T06:47:35.254Z,28.84
2023-05-07T06:48:35.231Z,28.79
2023-05-07T06:49:35.221Z,28.79
2023-05-07T06:50:35.209Z,28.79
2023-05-07T06:51:35.189Z,28.90
2023-05-07T06:52:35.476Z,28.79
2023-05-07T06:53:35.160Z,28.84
2023-05-07T06:54:35.151Z,28.74
2023-05-07T06:55:35.155Z,28.84
2023-05-07T06:56:35.124Z,28.79
2023-05-07T06:57:35.108Z,28.63
2023-05-07T06:58:35.103Z,28.79
2023-05-07T06:59:35.094Z,28.74
2023-05-07T07:00:35.069Z,28.84
2023-05-07T07:01:35.124Z,28.79
2023-05-07T07:02:35.113Z,28.68
2023-05-07T07:03:35.029Z,28.79
2023-05-07T07:04:35.048Z,28.84
2023-05-07T07:05:35.115Z,28.90
2023-05-07T07:06:34.992Z,28.20
2023-05-07T07:07:34.978Z,28.31
2023-05-07T07:08:34.966Z,28.79
2023-05-07T07:09:34.995Z,28.31
2023-05-07T07:10:34.937Z,28.79
2023-05-07T07:11:35.020Z,28.31
2023-05-07T07:12:35.002Z,28.25
2023-05-07T07:13:34.905Z,28.25
2023-05-07T07:14:34.882Z,28.31
2023-05-07T07:15:35.270Z,28.25
2023-05-07T07:16:34.892Z,28.20
2023-05-07T07:17:35.173Z,27.98
2023-05-07T07:18:34.831Z,28.14
2023-05-07T07:19:34.815Z,28.14
2023-05-07T07:20:34.822Z,28.20
2023-05-07T07:21:34.809Z,28.20
2023-05-07T07:22:34.781Z,28.25
2023-05-07T07:23:35.114Z,28.31
2023-05-07T07:24:34.750Z,28.20
2023-05-07T07:25:34.743Z,28.31
2023-05-07T07:26:34.931Z,28.14
2023-05-07T07:27:34.863Z,28.25
2023-05-07T07:28:34.700Z,28.25
2023-05-07T07:29:34.689Z,28.14
2023-05-07T07:30:34.678Z,28.04
2023-05-07T07:31:34.711Z,27.88
2023-05-07T07:32:34.709Z,28.14
2023-05-07T07:33:34.635Z,28.25
2023-05-07T07:34:34.624Z,28.25
2023-05-07T07:35:34.615Z,28.14
2023-05-07T07:36:45.093Z,28.25
2023-05-07T07:37:35.606Z,28.25
2023-05-07T07:38:34.572Z,28.20
2023-05-07T07:39:34.566Z,28.04
2023-05-07T07:40:34.551Z,28.25
2023-05-07T07:41:34.539Z,27.82
2023-05-07T07:42:34.527Z,27.93
2023-05-07T07:43:34.609Z,27.93
2023-05-07T07:44:34.494Z,27.82
2023-05-07T07:45:34.489Z,27.77
2023-05-07T07:46:34.492Z,27.66
2023-05-07T07:47:34.491Z,27.82
2023-05-07T07:48:34.436Z,28.25
2023-05-07T07:49:34.429Z,27.93
2023-05-07T07:50:44.525Z,28.41
2023-05-07T07:51:35.444Z,27.82
2023-05-07T07:52:34.390Z,27.88
2023-05-07T07:53:34.390Z,27.93
2023-05-07T07:54:34.360Z,27.88
2023-05-07T07:55:34.356Z,27.88
2023-05-07T07:56:34.334Z,27.88
2023-05-07T07:57:34.348Z,27.82
2023-05-07T07:58:34.309Z,27.82
2023-05-07T07:59:34.380Z,27.77
2023-05-07T08:00:34.285Z,27.77
2023-05-07T08:01:34.274Z,27.88
2023-05-07T08:02:34.365Z,27.82
2023-05-07T08:03:34.334Z,27.88
2023-05-07T08:04:34.349Z,27.66
2023-05-07T08:05:34.217Z,27.82
2023-05-07T08:06:34.224Z,27.88
2023-05-07T08:07:34.196Z,27.71
2023-05-07T08:08:34.189Z,27.88
2023-05-07T08:09:34.176Z,27.61
2023-05-07T08:10:35.102Z,27.82
2023-05-07T08:11:34.153Z,27.77
2023-05-07T08:12:34.128Z,27.82
2023-05-07T08:13:34.117Z,27.98
2023-05-07T08:14:34.102Z,27.66
2023-05-07T08:15:34.186Z,27.77
2023-05-07T08:16:34.112Z,27.50
2023-05-07T08:17:34.101Z,27.88
2023-05-07T08:18:34.055Z,27.82
2023-05-07T08:19:34.048Z,27.82
2023-05-07T08:20:34.028Z,27.93
2023-05-07T08:21:34.694Z,27.88
2023-05-07T08:22:34.045Z,27.45
2023-05-07T08:23:33.994Z,27.88
2023-05-07T08:24:33.980Z,27.82
2023-05-07T08:25:34.119Z,27.98
2023-05-07T08:26:33.946Z,27.71
2023-05-07T08:27:33.940Z,27.66
2023-05-07T08:28:33.925Z,27.71
2023-05-07T08:29:33.912Z,27.71
2023-05-07T08:30:33.909Z,27.82
2023-05-07T08:31:34.047Z,27.77
2023-05-07T08:32:33.896Z,27.45
2023-05-07T08:33:33.866Z,27.88
2023-05-07T08:34:33.849Z,27.88
2023-05-07T08:35:33.838Z,27.66
2023-05-07T08:36:33.820Z,27.93
2023-05-07T08:37:33.815Z,27.45
2023-05-07T08:38:33.795Z,27.50
2023-05-07T08:39:33.792Z,27.07
2023-05-07T08:40:33.775Z,27.45
2023-05-07T08:41:33.762Z,27.39
2023-05-07T08:42:33.740Z,27.50
2023-05-07T08:43:33.735Z,27.61
2023-05-07T08:44:33.717Z,27.39
2023-05-07T08:45:33.716Z,27.45
2023-05-07T08:46:33.767Z,27.45
2023-05-07T08:47:33.724Z,27.45
2023-05-07T08:48:33.668Z,27.71
2023-05-07T08:49:33.657Z,27.39
2023-05-07T08:50:33.656Z,27.45
2023-05-07T08:51:33.633Z,27.55
2023-05-07T08:52:33.617Z,27.39
2023-05-07T08:53:33.610Z,27.45
2023-05-07T08:54:33.594Z,27.71
2023-05-07T08:55:33.579Z,27.45
2023-05-07T08:56:33.565Z,27.55
2023-05-07T08:57:33.558Z,27.45
2023-05-07T08:58:33.541Z,27.34
2023-05-07T08:59:33.640Z,27.50
2023-05-07T09:00:33.524Z,27.50
2023-05-07T09:01:33.565Z,27.55
2023-05-07T09:02:33.507Z,27.45
2023-05-07T09:03:33.629Z,27.55
2023-05-07T09:04:33.465Z,27.45
2023-05-07T09:05:33.453Z,27.61
2023-05-07T09:06:33.449Z,27.45
2023-05-07T09:07:33.437Z,27.55
2023-05-07T09:08:33.418Z,27.50
2023-05-07T09:09:33.407Z,27.45
2023-05-07T09:10:33.395Z,26.86
2023-05-07T09:11:33.384Z,27.61
2023-05-07T09:12:33.385Z,27.45
2023-05-07T09:13:33.355Z,27.45
2023-05-07T09:14:33.350Z,27.45
2023-05-07T09:15:33.335Z,27.45
2023-05-07T09:16:33.513Z,26.91
2023-05-07T09:17:33.336Z,26.96
2023-05-07T09:18:33.304Z,27.07
2023-05-07T09:19:33.310Z,27.12
2023-05-07T09:20:33.272Z,26.86
2023-05-07T09:21:33.257Z,27.50
2023-05-07T09:22:33.253Z,27.02
2023-05-07T09:23:33.244Z,27.50
2023-05-07T09:24:33.239Z,27.39
2023-05-07T09:25:33.215Z,26.96
2023-05-07T09:26:33.208Z,26.91
2023-05-07T09:27:33.194Z,26.96
2023-05-07T09:28:34.240Z,26.86
2023-05-07T09:29:33.166Z,27.02
2023-05-07T09:30:33.158Z,26.96
2023-05-07T09:31:33.192Z,26.91
2023-05-07T09:32:33.165Z,27.29
2023-05-07T09:33:33.136Z,26.75
2023-05-07T09:34:33.112Z,26.86
2023-05-07T09:35:33.196Z,26.86
2023-05-07T09:36:33.083Z,26.86
2023-05-07T09:37:33.106Z,26.80
2023-05-07T09:38:33.060Z,26.43
2023-05-07T09:39:33.050Z,26.86
2023-05-07T09:40:33.038Z,26.86
2023-05-07T09:41:33.034Z,26.91
2023-05-07T09:42:33.008Z,26.91
2023-05-07T09:43:33.006Z,26.91
2023-05-07T09:44:32.994Z,27.07
2023-05-07T09:45:33.016Z,26.86
2023-05-07T09:46:32.960Z,26.80
2023-05-07T09:47:33.014Z,26.80
2023-05-07T09:48:33.141Z,26.91
2023-05-07T09:49:32.929Z,26.59
2023-05-07T09:50:32.939Z,26.91
2023-05-07T09:51:32.993Z,26.96
2023-05-07T09:52:32.891Z,26.86
2023-05-07T09:53:32.880Z,26.91
2023-05-07T09:54:32.872Z,26.80
2023-05-07T09:55:32.856Z,26.43
2023-05-07T09:56:32.898Z,26.48
2023-05-07T09:57:32.833Z,26.91
2023-05-07T09:58:32.823Z,26.64
2023-05-07T09:59:32.818Z,26.91
2023-05-07T10:00:32.804Z,26.91
2023-05-07T10:01:32.900Z,26.80
2023-05-07T10:02:32.807Z,26.48
2023-05-07T10:03:32.812Z,26.48
2023-05-07T10:04:32.755Z,26.86
2023-05-07T10:05:32.744Z,26.86
2023-05-07T10:06:32.727Z,26.53
2023-05-07T10:07:32.942Z,26.96
2023-05-07T10:08:32.708Z,26.64
2023-05-07T10:09:32.693Z,26.53
2023-05-07T10:10:32.691Z,26.48
2023-05-07T10:11:32.670Z,26.48
2023-05-07T10:12:32.663Z,26.26
2023-05-07T10:13:32.660Z,26.48
2023-05-07T10:14:32.628Z,26.48
2023-05-07T10:15:32.622Z,26.53
2023-05-07T10:16:32.623Z,26.43
2023-05-07T10:17:32.659Z,26.37
2023-05-07T10:18:32.627Z,26.48
2023-05-07T10:19:32.582Z,26.48
2023-05-07T10:20:32.564Z,26.48
2023-05-07T10:21:32.552Z,26.53
2023-05-07T10:22:32.549Z,26.59
2023-05-07T10:23:32.830Z,26.53
2023-05-07T10:24:32.515Z,26.43
2023-05-07T10:25:32.514Z,26.53
2023-05-07T10:26:32.523Z,26.43
2023-05-07T10:27:32.505Z,26.48
2023-05-07T10:28:32.478Z,26.48
2023-05-07T10:29:32.462Z,26.48
2023-05-07T10:30:33.130Z,26.48
2023-05-07T10:31:32.507Z,26.53
2023-05-07T10:32:32.448Z,26.48
2023-05-07T10:33:32.420Z,26.69
2023-05-07T10:34:32.404Z,26.59
2023-05-07T10:35:32.391Z,26.86
2023-05-07T10:36:32.380Z,26.32
2023-05-07T10:37:32.365Z,26.48
2023-05-07T10:38:32.361Z,26.64
2023-05-07T10:39:32.372Z,26.48
2023-05-07T10:40:32.342Z,26.48
2023-05-07T10:41:32.329Z,26.05
2023-05-07T10:42:32.313Z,26.16
2023-05-07T10:43:32.305Z,26.48
2023-05-07T10:44:32.286Z,26.43
2023-05-07T10:45:32.287Z,26.53
2023-05-07T10:46:32.307Z,26.53
2023-05-07T10:47:32.301Z,26.59
2023-05-07T10:48:32.273Z,26.48
2023-05-07T10:49:32.593Z,26.00
2023-05-07T10:50:32.244Z,26.96
2023-05-07T10:51:32.212Z,26.48
2023-05-07T10:52:32.195Z,26.05
2023-05-07T10:53:32.188Z,26.53
2023-05-07T10:54:32.172Z,26.05
2023-05-07T10:55:32.257Z,26.48
2023-05-07T10:56:32.147Z,26.53
2023-05-07T10:57:32.168Z,26.53
2023-05-07T10:58:33.025Z,26.10
2023-05-07T10:59:32.115Z,26.53
2023-05-07T11:01:32.103Z,26.32
2023-05-07T11:02:32.115Z,26.53
2023-05-07T11:03:32.073Z,26.48
2023-05-07T11:04:32.062Z,26.64
2023-05-07T11:05:32.728Z,27.02
2023-05-07T11:06:32.034Z,26.53
2023-05-07T11:07:32.116Z,26.48
2023-05-07T11:08:32.011Z,26.48
2023-05-07T11:09:31.997Z,26.53
2023-05-07T11:10:31.981Z,26.48
2023-05-07T11:11:33.015Z,26.75
2023-05-07T11:12:31.955Z,26.64
2023-05-07T11:13:31.945Z,26.48
2023-05-07T11:14:31.938Z,26.48
2023-05-07T11:15:31.927Z,26.48
2023-05-07T11:16:31.930Z,26.64
2023-05-07T11:17:32.752Z,26.69
2023-05-07T11:18:31.886Z,26.32
2023-05-07T11:19:31.896Z,26.26
2023-05-07T11:20:31.868Z,26.37
2023-05-07T11:21:31.856Z,26.48
2023-05-07T11:22:31.841Z,26.43
2023-05-07T11:23:31.837Z,26.48
2023-05-07T11:24:31.817Z,26.48
2023-05-07T11:25:31.801Z,26.32
2023-05-07T11:26:31.803Z,26.53
2023-05-07T11:27:31.886Z,26.59
2023-05-07T11:28:31.777Z,26.48
2023-05-07T11:29:31.765Z,26.48
2023-05-07T11:30:31.748Z,26.59
2023-05-07T11:31:31.900Z,26.48
2023-05-07T11:32:31.785Z,26.43
2023-05-07T11:33:31.712Z,26.53
2023-05-07T11:34:31.693Z,26.48
2023-05-07T11:35:31.691Z,26.48
2023-05-07T11:36:31.674Z,26.48
2023-05-07T11:37:31.674Z,26.43
2023-05-07T11:38:31.646Z,26.48
2023-05-07T11:39:31.640Z,26.53
2023-05-07T11:40:31.630Z,26.48
2023-05-07T11:41:31.613Z,26.21
2023-05-07T11:42:31.614Z,26.48
2023-05-07T11:43:31.747Z,26.48
2023-05-07T11:44:31.585Z,26.48
2023-05-07T11:45:31.574Z,26.48
2023-05-07T11:46:31.593Z,26.48
2023-05-07T11:47:31.558Z,26.37
2023-05-07T11:48:31.526Z,26.43
2023-05-07T11:49:31.521Z,26.48
2023-05-07T11:50:31.521Z,26.48
2023-05-07T11:51:31.841Z,26.43
2023-05-07T11:52:31.481Z,26.48
2023-05-07T11:53:31.470Z,26.64
2023-05-07T11:54:31.457Z,26.48
2023-05-07T11:55:31.451Z,26.64
2023-05-07T11:56:31.431Z,26.37
2023-05-07T11:57:31.425Z,26.80
2023-05-07T11:58:31.398Z,26.43
2023-05-07T11:59:31.408Z,26.48
2023-05-07T12:00:31.375Z,26.59
2023-05-07T12:01:31.361Z,26.53
2023-05-07T12:02:31.442Z,26.48
2023-05-07T12:03:32.308Z,26.53
2023-05-07T12:04:31.367Z,26.43
2023-05-07T12:05:31.309Z,26.48
2023-05-07T12:06:31.304Z,26.43
2023-05-07T12:07:31.288Z,26.53
2023-05-07T12:08:31.276Z,26.48
2023-05-07T12:09:31.264Z,26.48
2023-05-07T12:10:31.250Z,26.48
2023-05-07T12:11:31.240Z,26.43
2023-05-07T12:12:31.229Z,26.43
2023-05-07T12:13:31.218Z,26.48
2023-05-07T12:14:31.206Z,26.43
2023-05-07T12:15:31.212Z,26.59
2023-05-07T12:16:31.201Z,26.48
2023-05-07T12:17:31.196Z,26.75
2023-05-07T12:18:31.155Z,26.75
2023-05-07T12:19:31.133Z,26.43
2023-05-07T12:20:31.129Z,26.37
2023-05-07T12:21:31.111Z,26.48
2023-05-07T12:22:31.107Z,26.64
2023-05-07T12:23:31.080Z,26.43
2023-05-07T12:24:31.096Z,26.69
2023-05-07T12:25:31.052Z,26.48
2023-05-07T12:26:31.047Z,26.32
2023-05-07T12:27:31.023Z,26.43
2023-05-07T12:28:31.014Z,26.86
2023-05-07T12:29:30.998Z,26.48
2023-05-07T12:30:30.990Z,26.48
2023-05-07T12:31:31.067Z,26.48
2023-05-07T12:32:30.979Z,26.48
2023-05-07T12:33:30.954Z,26.43
2023-05-07T12:34:30.955Z,26.48
2023-05-07T12:35:30.932Z,26.10
2023-05-07T12:36:30.922Z,26.43
2023-05-07T12:37:32.449Z,26.43
2023-05-07T12:38:30.891Z,26.53
2023-05-07T12:39:30.890Z,26.48
2023-05-07T12:40:30.867Z,26.69
2023-05-07T12:41:30.855Z,26.53
2023-05-07T12:42:30.842Z,26.86
2023-05-07T12:43:30.821Z,26.48
2023-05-07T12:44:30.916Z,26.32
2023-05-07T12:45:30.798Z,26.86
2023-05-07T12:46:30.826Z,26.48
2023-05-07T12:47:30.870Z,26.48
2023-05-07T12:48:30.767Z,26.86
2023-05-07T12:49:30.754Z,26.86
2023-05-07T12:50:30.741Z,26.59
2023-05-07T12:51:30.723Z,26.43
2023-05-07T12:52:30.812Z,26.43
2023-05-07T12:53:30.698Z,26.69